Time;durP1;ratioP1;P1;durP2;ratioP2;P2;SDS_P1;SDS_P2;PMS_P1;PMS_P2;Temp;Humidity;BMP_temperature;BMP_pressure;BME280_temperature;BME280_humidity;BME280_pressure;Samples;Min_cycle;Max_cycle;Signal;HPM_P1;HPM_P2
2024/03/10 00:02:13;;;;;;;15.93;8.05;;;;;;;12.26;100.00;99535.88;5250877;28;20036;-75
2024/03/10 00:04:44;;;;;;;16.65;8.13;;;;;;;12.24;100.00;99531.72;5244238;28;20493;-75
2024/03/10 00:07:15;;;;;;;16.85;7.65;;;;;;;12.28;100.00;99527.59;5248274;28;20028;-75
2024/03/10 00:09:46;;;;;;;17.42;8.80;;;;;;;12.31;100.00;99528.00;5244116;28;20105;-75
2024/03/10 00:12:17;;;;;;;19.58;8.27;;;;;;;12.34;100.00;99532.94;5250442;28;20020;-75
2024/03/10 00:14:49;;;;;;;15.52;7.95;;;;;;;12.29;100.00;99523.84;5248014;28;20083;-75
2024/03/10 00:17:20;;;;;;;21.98;10.00;;;;;;;12.30;100.00;99520.13;5248899;28;20043;-75
2024/03/10 00:19:50;;;;;;;24.88;9.77;;;;;;;12.30;100.00;99520.13;5245342;28;20020;-76
2024/03/10 00:22:21;;;;;;;20.90;9.38;;;;;;;12.33;100.00;99519.72;5248001;28;20086;-75
2024/03/10 00:24:51;;;;;;;22.80;10.27;;;;;;;12.30;100.00;99517.44;5249523;28;20059;-75
2024/03/10 00:27:22;;;;;;;25.55;10.38;;;;;;;12.39;100.00;99517.00;5250479;28;20031;-75
2024/03/10 00:29:52;;;;;;;20.17;9.90;;;;;;;12.38;100.00;99517.22;5248864;28;20024;-76
2024/03/10 00:32:24;;;;;;;21.38;10.52;;;;;;;12.45;100.00;99515.34;5248821;28;20026;-75
2024/03/10 00:34:56;;;;;;;22.02;10.48;;;;;;;12.48;100.00;99506.03;5253045;28;20028;-75
2024/03/10 00:37:27;;;;;;;22.58;10.07;;;;;;;12.47;100.00;99515.13;5249214;28;20815;-75
2024/03/10 00:39:57;;;;;;;23.98;10.85;;;;;;;12.47;100.00;99524.03;5248422;28;20031;-75
2024/03/10 00:42:29;;;;;;;23.90;10.93;;;;;;;12.51;100.00;99525.28;5250350;28;20111;-75
2024/03/10 00:45:00;;;;;;;20.98;10.40;;;;;;;12.50;100.00;99520.06;5248831;28;20031;-75
2024/03/10 00:47:30;;;;;;;24.88;11.02;;;;;;;12.50;100.00;99526.31;5248385;28;20029;-73
2024/03/10 00:50:02;;;;;;;24.42;10.68;;;;;;;12.51;100.00;99527.13;5265379;28;20062;-74
2024/03/10 00:52:32;;;;;;;21.10;10.27;;;;;;;12.51;100.00;99525.28;5247633;28;20095;-74
2024/03/10 00:55:05;;;;;;;20.92;10.52;;;;;;;12.53;100.00;99522.34;5252101;28;20107;-74
2024/03/10 00:57:35;;;;;;;22.23;10.80;;;;;;;12.55;100.00;99517.56;5246004;28;20043;-74
2024/03/10 01:00:13;;;;;;;24.92;10.75;;;;;;;12.48;100.00;99520.28;5249501;28;20054;-74
2024/03/10 01:02:47;;;;;;;22.50;10.52;;;;;;;12.47;100.00;99509.75;5247584;28;20030;-74
2024/03/10 01:05:18;;;;;;;20.50;10.43;;;;;;;12.48;100.00;99516.78;5247864;28;20551;-74
2024/03/10 01:07:49;;;;;;;23.92;10.43;;;;;;;12.39;100.00;99502.72;5249434;28;20020;-74
2024/03/10 01:10:20;;;;;;;24.83;11.23;;;;;;;12.37;100.00;99496.75;5249790;28;20032;-74
2024/03/10 01:12:50;;;;;;;23.52;10.80;;;;;;;12.33;100.00;99487.44;5249638;28;20377;-74
2024/03/10 01:15:22;;;;;;;22.35;9.80;;;;;;;12.30;100.00;99479.78;5251439;28;20016;-73
2024/03/10 01:17:53;;;;;;;23.52;10.65;;;;;;;12.30;100.00;99480.63;5248468;28;20028;-74
2024/03/10 01:20:26;;;;;;;20.63;10.65;;;;;;;12.29;100.00;99484.34;5247953;28;20505;-74
2024/03/10 01:22:57;;;;;;;22.50;10.93;;;;;;;12.21;100.00;99489.13;5251024;28;20047;-74
2024/03/10 01:25:27;;;;;;;27.25;11.07;;;;;;;12.17;100.00;99467.22;5247456;28;20020;-74
2024/03/10 01:27:59;;;;;;;21.38;10.20;;;;;;;12.11;100.00;99473.44;5255569;28;20035;-74
2024/03/10 01:30:29;;;;;;;21.88;11.20;;;;;;;12.13;100.00;99472.16;5245723;28;20060;-74
2024/03/10 01:33:00;;;;;;;25.48;11.73;;;;;;;12.14;100.00;99464.94;5255112;28;20074;-74
2024/03/10 01:35:31;;;;;;;23.83;11.15;;;;;;;12.06;100.00;99471.38;5253351;28;20017;-74
2024/03/10 01:38:01;;;;;;;21.38;11.02;;;;;;;12.07;100.00;99473.03;5251460;28;20470;-73
2024/03/10 01:40:32;;;;;;;20.40;10.30;;;;;;;12.02;100.00;99459.38;5251991;28;20012;-74
2024/03/10 01:43:02;;;;;;;22.80;10.73;;;;;;;12.03;100.00;99455.66;5257279;28;20070;-74
2024/03/10 01:45:33;;;;;;;26.98;11.85;;;;;;;12.08;100.00;99457.72;5257630;28;20806;-74
2024/03/10 01:48:04;;;;;;;22.35;11.00;;;;;;;12.07;100.00;99462.25;5251595;28;20020;-74
2024/03/10 01:50:35;;;;;;;22.23;10.20;;;;;;;12.06;100.00;99462.47;5254498;28;20051;-74
2024/03/10 01:53:05;;;;;;;23.83;11.32;;;;;;;12.09;100.00;99456.66;5251517;28;20024;-74
2024/03/10 01:55:37;;;;;;;21.42;11.02;;;;;;;12.08;100.00;99450.47;5257461;28;20044;-74
2024/03/10 01:58:07;;;;;;;25.55;10.52;;;;;;;12.09;100.00;99456.66;5253038;28;20039;-74
2024/03/10 02:00:38;;;;;;;22.83;10.77;;;;;;;12.06;100.00;99457.94;5249090;28;20474;-73
2024/03/10 02:03:10;;;;;;;24.23;11.05;;;;;;;12.07;100.00;99459.56;5251879;28;20118;-74
2024/03/10 02:05:41;;;;;;;24.58;10.82;;;;;;;12.10;100.00;99472.59;5240192;28;20491;-74
2024/03/10 02:08:14;;;;;;;22.80;10.98;;;;;;;12.08;100.00;99469.28;5250249;28;20055;-74
2024/03/10 02:10:46;;;;;;;23.40;10.85;;;;;;;12.08;100.00;99458.53;5248808;28;20025;-74
2024/03/10 02:13:17;;;;;;;27.02;10.80;;;;;;;12.05;100.00;99464.34;5249139;28;20084;-74
2024/03/10 02:16:00;;;;;;;21.73;10.20;;;;;;;12.05;100.00;99455.44;5267589;28;20016;-74
2024/03/10 02:18:32;;;;;;;18.75;9.82;;;;;;;12.02;100.00;99459.38;5250625;28;20024;-74
2024/03/10 02:21:03;;;;;;;21.13;9.85;;;;;;;12.04;100.00;99462.66;5252759;28;20036;-74
2024/03/10 02:23:40;;;;;;;23.15;11.13;;;;;;;11.98;100.00;99458.13;5254342;28;20028;-74
2024/03/10 02:26:10;;;;;;;29.02;11.18;;;;;;;11.99;100.00;99456.28;5255149;28;20074;-74
2024/03/10 02:28:57;;;;;;;26.55;10.73;;;;;;;11.97;100.00;99451.13;5251720;28;20107;-74
2024/03/10 02:48:23;;;;;;;21.30;10.25;;;;;;;11.70;100.00;99415.38;5251856;28;20024;-74
2024/03/10 02:50:54;;;;;;;21.27;10.13;;;;;;;11.67;100.00;99419.28;5254487;28;20024;-74
2024/03/10 02:53:25;;;;;;;23.35;10.80;;;;;;;11.65;100.00;99421.38;5253755;28;20032;-74
2024/03/10 02:55:56;;;;;;;22.55;11.25;;;;;;;11.65;100.00;99426.75;5251646;28;20025;-74
2024/03/10 02:58:26;;;;;;;20.50;10.25;;;;;;;11.62;100.00;99424.47;5250859;28;20020;-74
2024/03/10 03:00:57;;;;;;;21.85;10.85;;;;;;;11.61;100.00;99419.31;5252633;28;20093;-74
2024/03/10 03:03:28;;;;;;;21.30;10.13;;;;;;;11.57;100.00;99445.75;5254685;28;20094;-74
2024/03/10 03:05:59;;;;;;;24.55;10.13;;;;;;;11.57;100.00;99423.44;5251506;28;20229;-74
2024/03/10 03:08:29;;;;;;;25.35;10.88;;;;;;;11.55;100.00;99420.13;5252103;28;20024;-74
2024/03/10 03:11:00;;;;;;;22.30;9.93;;;;;;;11.52;100.00;99418.69;5266536;28;20020;-74
2024/03/10 03:13:31;;;;;;;26.27;10.90;;;;;;;11.48;100.00;99414.75;5251746;28;20031;-73
2024/03/10 03:16:02;;;;;;;23.42;11.13;;;;;;;11.44;100.00;99421.56;5255753;28;20021;-73
2024/03/10 03:18:33;;;;;;;20.92;9.75;;;;;;;11.38;100.00;99417.84;5250265;28;20366;-74
2024/03/10 03:21:04;;;;;;;22.70;10.57;;;;;;;11.35;100.00;99415.59;5253884;28;20024;-74
2024/03/10 03:23:34;;;;;;;26.58;10.75;;;;;;;11.34;100.00;99413.09;5249729;28;20029;-74
2024/03/10 03:26:05;;;;;;;17.85;9.93;;;;;;;11.28;100.00;99413.91;5253638;28;20032;-74
2024/03/10 03:28:36;;;;;;;23.20;11.13;;;;;;;11.26;100.00;99408.75;5249165;28;20037;-75
2024/03/10 03:31:06;;;;;;;20.20;10.18;;;;;;;11.22;100.00;99398.63;5247392;28;20050;-74
2024/03/10 03:33:39;;;;;;;23.30;11.35;;;;;;;11.19;100.00;99399.03;5248570;28;20016;-74
2024/03/10 03:36:10;;;;;;;23.55;11.05;;;;;;;11.18;100.00;99408.94;5256659;28;20024;-75
2024/03/10 03:38:43;;;;;;;25.48;10.73;;;;;;;11.14;100.00;99413.91;5249224;28;20504;-74
2024/03/10 03:41:13;;;;;;;26.83;11.20;;;;;;;11.15;100.00;99410.19;5256415;28;20027;-74
2024/03/10 03:43:44;;;;;;;21.83;10.27;;;;;;;11.17;100.00;99398.44;5248628;28;20043;-75
2024/03/10 03:46:16;;;;;;;19.92;10.32;;;;;;;11.18;100.00;99402.75;5241213;28;20028;-75
2024/03/10 03:48:47;;;;;;;22.15;10.18;;;;;;;11.13;100.00;99406.88;5250284;28;20020;-75
2024/03/10 03:51:21;;;;;;;21.65;10.85;;;;;;;11.12;100.00;99394.50;5249060;28;20390;-75
2024/03/10 03:53:52;;;;;;;28.20;11.48;;;;;;;11.09;100.00;99380.66;5252812;28;20023;-75
2024/03/10 03:56:23;;;;;;;26.75;11.05;;;;;;;11.04;100.00;99386.63;5254133;28;20423;-75
2024/03/10 03:58:54;;;;;;;23.92;11.52;;;;;;;11.04;100.00;99378.56;5251860;28;20035;-74
2024/03/10 04:01:25;;;;;;;27.65;11.55;;;;;;;11.01;100.00;99391.59;5245840;28;20028;-74
2024/03/10 04:03:56;;;;;;;24.27;10.65;;;;;;;11.01;100.00;99376.31;5248914;28;20500;-74
2024/03/10 04:06:28;;;;;;;24.90;11.18;;;;;;;10.98;100.00;99373.22;5247834;28;20020;-75
2024/03/10 04:08:58;;;;;;;20.77;10.27;;;;;;;10.96;100.00;99373.44;5250780;28;20680;-75
2024/03/10 04:11:29;;;;;;;24.00;11.43;;;;;;;10.94;100.00;99377.34;5253861;28;20020;-75
2024/03/10 04:14:00;;;;;;;23.00;11.93;;;;;;;10.93;100.00;99359.59;5252735;28;20020;-74
2024/03/10 04:16:31;;;;;;;23.27;11.00;;;;;;;10.92;100.00;99366.00;5253333;28;20031;-75
2024/03/10 04:19:04;;;;;;;24.63;11.57;;;;;;;10.90;100.00;99374.25;5251789;28;20063;-74
2024/03/10 04:21:35;;;;;;;26.27;10.80;;;;;;;10.91;100.00;99375.06;5251522;28;20520;-75
2024/03/10 04:24:07;;;;;;;22.70;11.25;;;;;;;10.93;100.00;99375.69;5254412;28;20028;-74
2024/03/10 04:26:43;;;;;;;26.15;11.40;;;;;;;10.96;100.00;99361.88;5250108;28;20122;-74
2024/03/10 04:29:14;;;;;;;23.10;10.75;;;;;;;10.89;100.00;99373.44;5253237;28;20036;-74
2024/03/10 04:31:45;;;;;;;21.70;10.68;;;;;;;10.88;100.00;99371.75;5252390;28;20505;-74
2024/03/10 04:34:15;;;;;;;25.45;10.98;;;;;;;10.90;100.00;99382.31;5244617;28;20022;-74
2024/03/10 04:36:46;;;;;;;25.38;11.35;;;;;;;10.92;100.00;99376.72;5251354;28;20031;-74
2024/03/10 04:39:16;;;;;;;25.38;11.23;;;;;;;10.93;100.00;99363.09;5250603;28;20016;-74
2024/03/10 04:41:47;;;;;;;21.02;10.52;;;;;;;10.89;100.00;99372.56;5250106;28;20042;-75
2024/03/10 04:44:19;;;;;;;23.42;11.25;;;;;;;10.88;100.00;99368.25;5256069;28;20020;-75
2024/03/10 04:46:50;;;;;;;26.48;11.93;;;;;;;10.90;100.00;99363.53;5248403;28;20024;-74
2024/03/10 04:49:20;;;;;;;27.13;11.82;;;;;;;10.89;100.00;99367.22;5256656;28;20663;-75
2024/03/10 04:51:51;;;;;;;22.13;11.38;;;;;;;10.86;100.00;99354.22;5249421;28;20017;-75
2024/03/10 04:54:22;;;;;;;23.15;11.50;;;;;;;10.82;100.00;99350.28;5253776;28;20027;-74
2024/03/10 04:56:53;;;;;;;19.83;10.40;;;;;;;10.83;100.00;99343.88;5249029;28;20028;-74
2024/03/10 04:59:24;;;;;;;21.88;10.18;;;;;;;10.79;100.00;99350.69;5250270;28;20081;-74
2024/03/10 05:01:54;;;;;;;25.02;11.20;;;;;;;10.80;100.00;99339.78;5251467;28;20111;-75
2024/03/10 05:04:25;;;;;;;25.17;11.80;;;;;;;10.78;100.00;99330.25;5250635;28;20020;-74
2024/03/10 05:06:55;;;;;;;21.38;10.80;;;;;;;10.80;100.00;99331.72;5253296;28;20029;-74
2024/03/10 05:09:26;;;;;;;21.77;10.95;;;;;;;10.80;100.00;99325.53;5250811;28;20020;-75
2024/03/10 05:11:56;;;;;;;25.23;11.23;;;;;;;10.80;100.00;99317.50;5245397;28;20028;-74
2024/03/10 05:14:27;;;;;;;23.65;11.48;;;;;;;10.72;100.00;99334.59;5250908;28;20588;-74
2024/03/10 05:16:59;;;;;;;25.30;11.65;;;;;;;10.75;100.00;99328.00;5251900;28;20032;-74
2024/03/10 05:19:30;;;;;;;26.48;11.65;;;;;;;10.81;100.00;99324.50;5250062;28;20050;-75
2024/03/10 05:22:01;;;;;;;25.95;12.18;;;;;;;10.82;100.00;99316.25;5251617;28;20165;-75
2024/03/10 05:24:31;;;;;;;23.73;10.70;;;;;;;10.82;100.00;99304.69;5254109;28;20023;-74
2024/03/10 05:27:02;;;;;;;21.30;10.50;;;;;;;10.81;100.00;99330.69;5247697;28;20037;-74
2024/03/10 05:29:32;;;;;;;23.38;10.75;;;;;;;10.81;100.00;99333.38;5237380;28;20049;-75
2024/03/10 05:32:04;;;;;;;24.95;10.85;;;;;;;10.83;100.00;99328.63;5247987;28;20028;-74
2024/03/10 05:34:35;;;;;;;23.13;10.55;;;;;;;10.83;100.00;99341.22;5248597;28;20451;-74
2024/03/10 05:37:06;;;;;;;23.17;10.40;;;;;;;10.83;100.00;99331.28;5247270;28;20028;-74
2024/03/10 05:39:36;;;;;;;22.95;10.80;;;;;;;10.84;100.00;99332.13;5248695;28;20024;-75
2024/03/10 05:42:07;;;;;;;22.73;10.82;;;;;;;10.87;100.00;99343.28;5251585;28;20016;-74
2024/03/10 05:44:38;;;;;;;21.25;11.32;;;;;;;10.85;100.00;99334.63;5245703;28;20618;-74
2024/03/10 05:47:11;;;;;;;22.10;11.02;;;;;;;10.85;100.00;99345.34;5241511;28;20056;-75
2024/03/10 05:49:41;;;;;;;21.90;10.88;;;;;;;10.82;100.00;99334.19;5239251;28;20510;-74
2024/03/10 05:52:12;;;;;;;19.77;10.50;;;;;;;10.81;100.00;99328.00;5248950;28;20030;-74
2024/03/10 05:54:43;;;;;;;26.58;12.13;;;;;;;10.86;100.00;99343.50;5246667;28;20448;-75
2024/03/10 05:57:14;;;;;;;20.98;10.40;;;;;;;10.84;100.00;99327.59;5247885;28;20027;-75
2024/03/10 05:59:45;;;;;;;23.52;10.88;;;;;;;10.83;100.00;99319.75;5243104;28;20099;-75
2024/03/10 06:02:16;;;;;;;23.48;10.57;;;;;;;10.81;100.00;99313.78;5231224;28;20027;-74
2024/03/10 06:04:46;;;;;;;25.75;12.80;;;;;;;10.77;100.00;99304.47;5244676;28;20042;-74
2024/03/10 06:07:17;;;;;;;20.80;10.15;;;;;;;10.67;100.00;99323.66;5248851;28;20036;-74
2024/03/10 06:09:47;;;;;;;19.85;10.15;;;;;;;10.67;100.00;99315.59;5247736;28;20447;-74
2024/03/10 06:12:18;;;;;;;22.95;10.77;;;;;;;10.72;100.00;99315.00;5249734;28;20035;-74
2024/03/10 06:14:48;;;;;;;23.58;10.68;;;;;;;10.74;100.00;99316.41;5254558;28;20049;-74
2024/03/10 06:17:21;;;;;;;26.10;11.88;;;;;;;10.71;100.00;99316.03;5248519;28;20028;-74
2024/03/10 06:25:32;;;;;;;24.75;11.80;;;;;;;10.72;100.00;99345.31;5250562;28;20104;-74
2024/03/10 06:28:03;;;;;;;24.63;10.95;;;;;;;10.70;100.00;99352.75;5261020;28;20047;-74
2024/03/10 06:30:35;;;;;;;23.17;10.18;;;;;;;10.63;100.00;99365.31;5251459;28;20561;-75
2024/03/10 06:33:06;;;;;;;27.02;11.23;;;;;;;10.59;100.00;99369.41;5257776;28;20081;-74
2024/03/10 06:35:37;;;;;;;19.95;10.48;;;;;;;10.62;100.00;99367.16;5251557;28;20024;-75
2024/03/10 06:38:08;;;;;;;24.77;11.27;;;;;;;10.63;100.00;99368.81;5255774;28;20034;-75
2024/03/10 06:40:39;;;;;;;23.80;11.40;;;;;;;10.61;100.00;99378.09;5252440;28;20028;-75
2024/03/10 06:43:09;;;;;;;23.63;11.18;;;;;;;10.59;100.00;99381.00;5254613;28;20036;-76
2024/03/10 06:45:42;;;;;;;21.45;10.52;;;;;;;10.57;100.00;99379.53;5258476;28;20028;-75
2024/03/10 06:48:13;;;;;;;22.48;10.55;;;;;;;10.55;100.00;99376.22;5257013;28;20177;-75
2024/03/10 06:50:45;;;;;;;23.42;10.63;;;;;;;10.58;100.00;99375.81;5253425;28;20119;-74
2024/03/10 06:53:15;;;;;;;31.63;11.68;;;;;;;10.57;100.00;99379.53;5256152;28;20023;-74
2024/03/10 06:55:46;;;;;;;21.08;11.15;;;;;;;10.57;100.00;99384.88;5255854;28;20101;-75
2024/03/10 06:58:17;;;;;;;23.52;11.35;;;;;;;10.54;100.00;99385.28;5248270;28;20024;-74
2024/03/10 07:00:47;;;;;;;22.08;11.15;;;;;;;10.53;100.00;99384.47;5252739;28;20052;-74
2024/03/10 07:03:18;;;;;;;20.88;10.15;;;;;;;10.51;100.00;99383.03;5259063;28;20031;-74
2024/03/10 07:05:48;;;;;;;21.92;11.18;;;;;;;10.51;100.00;99381.16;5251490;28;20024;-74
2024/03/10 07:08:19;;;;;;;24.27;11.43;;;;;;;10.50;100.00;99392.09;5256448;28;20081;-74
2024/03/10 07:10:49;;;;;;;24.60;11.45;;;;;;;10.50;100.00;99392.94;5252131;28;20042;-74
2024/03/10 07:13:20;;;;;;;22.23;11.15;;;;;;;10.51;100.00;99397.25;5259219;28;20028;-75
2024/03/10 07:15:53;;;;;;;24.98;12.07;;;;;;;10.55;100.00;99408.41;5256115;28;20016;-75
2024/03/10 07:18:23;;;;;;;22.98;11.48;;;;;;;10.57;100.00;99411.72;5254914;28;20028;-74
2024/03/10 07:20:54;;;;;;;21.67;11.43;;;;;;;10.62;100.00;99419.97;5253746;28;20486;-75
2024/03/10 07:23:24;;;;;;;27.00;11.55;;;;;;;10.61;100.00;99439.78;5252847;28;20031;-75
2024/03/10 07:25:55;;;;;;;24.80;11.88;;;;;;;10.57;100.00;99447.41;5251149;28;20494;-74
2024/03/10 07:28:26;;;;;;;22.92;11.55;;;;;;;10.65;100.00;99450.94;5254197;28;20085;-75
2024/03/10 07:30:57;;;;;;;24.67;11.05;;;;;;;10.70;100.00;99446.63;5250382;28;20020;-75
2024/03/10 07:33:27;;;;;;;24.40;11.23;;;;;;;10.77;100.00;99439.41;5251236;28;20147;-74
2024/03/10 07:35:58;;;;;;;25.42;11.05;;;;;;;10.85;100.00;99441.09;5257356;28;20012;-75
2024/03/10 07:38:28;;;;;;;26.17;12.32;;;;;;;10.93;100.00;99434.72;5250880;28;20441;-75
2024/03/10 07:40:59;;;;;;;29.25;11.75;;;;;;;10.99;100.00;99432.03;5254299;28;20012;-74
2024/03/10 07:43:29;;;;;;;23.73;12.40;;;;;;;11.04;100.00;99428.75;5249272;28;20028;-75
2024/03/10 07:46:00;;;;;;;23.92;12.25;;;;;;;11.04;100.00;99432.25;5255037;28;20043;-75
2024/03/10 07:48:32;;;;;;;24.25;11.27;;;;;;;11.08;100.00;99413.91;5250733;28;20023;-74
2024/03/10 07:51:04;;;;;;;28.05;12.15;;;;;;;11.12;100.00;99432.06;5253917;28;20031;-74
2024/03/10 07:53:35;;;;;;;25.20;12.77;;;;;;;11.18;100.00;99438.47;5253113;28;20024;-74
2024/03/10 07:56:06;;;;;;;27.95;12.27;;;;;;;11.27;100.00;99449.84;5254174;28;20024;-74
2024/03/10 07:58:36;;;;;;;24.30;12.85;;;;;;;11.34;100.00;99453.34;5250111;28;20035;-75
2024/03/10 08:01:07;;;;;;;24.05;12.52;;;;;;;11.40;100.00;99468.69;5253556;28;20020;-75
2024/03/10 08:03:37;;;;;;;29.17;13.02;;;;;;;11.46;100.00;99464.34;5253367;28;20054;-74
2024/03/10 08:06:10;;;;;;;24.50;12.18;;;;;;;11.47;100.00;99458.75;5251065;28;20103;-75
2024/03/10 08:08:40;;;;;;;26.08;12.95;;;;;;;11.50;100.00;99455.66;5250119;28;20154;-75
2024/03/10 08:11:11;;;;;;;27.30;13.05;;;;;;;11.55;100.00;99442.44;5256307;28;20024;-74
2024/03/10 08:13:44;;;;;;;27.52;13.52;;;;;;;11.57;100.00;99447.59;5249184;28;20482;-75
2024/03/10 08:16:15;;;;;;;27.90;12.45;;;;;;;11.61;100.00;99446.97;5257778;28;20493;-75
2024/03/10 08:18:46;;;;;;;25.88;12.65;;;;;;;11.61;100.00;99436.25;5250761;28;20024;-75
2024/03/10 08:21:16;;;;;;;25.35;12.43;;;;;;;11.64;100.00;99457.31;5257071;28;20016;-75
2024/03/10 08:23:47;;;;;;;29.35;12.55;;;;;;;11.66;100.00;99449.06;5254351;28;20024;-74
2024/03/10 08:26:17;;;;;;;25.88;12.20;;;;;;;11.66;100.00;99436.44;5255764;28;20024;-75
2024/03/10 08:28:48;;;;;;;28.15;13.52;;;;;;;11.67;100.00;99456.06;5249273;28;20016;-75
2024/03/10 08:31:19;;;;;;;28.35;13.70;;;;;;;11.66;100.00;99471.38;5252098;28;20024;-75
2024/03/10 08:33:49;;;;;;;24.85;12.48;;;;;;;11.66;100.00;99474.06;5251695;28;20431;-75
2024/03/10 08:36:20;;;;;;;23.30;11.88;;;;;;;11.69;100.00;99467.44;5256512;28;20095;-74
2024/03/10 08:38:51;;;;;;;30.45;13.02;;;;;;;11.73;100.00;99465.97;5247344;28;20017;-75
2024/03/10 08:41:21;;;;;;;25.77;12.18;;;;;;;11.76;100.00;99460.22;5254680;28;20016;-75
2024/03/10 08:43:53;;;;;;;26.02;12.40;;;;;;;11.82;100.00;99445.16;5247161;28;20020;-75
2024/03/10 08:46:24;;;;;;;25.92;12.13;;;;;;;11.85;100.00;99452.81;5249625;28;20028;-74
2024/03/10 08:48:55;;;;;;;24.20;12.82;;;;;;;11.87;100.00;99445.34;5251679;28;20085;-75
2024/03/10 08:51:27;;;;;;;25.60;13.75;;;;;;;11.92;100.00;99432.09;5252014;28;20043;-75
2024/03/10 08:53:58;;;;;;;25.60;12.52;;;;;;;11.95;100.00;99431.69;5253566;28;20032;-76
2024/03/10 08:56:30;;;;;;;25.45;12.85;;;;;;;11.99;100.00;99449.03;5249150;28;20016;-75
2024/03/10 08:59:00;;;;;;;23.85;12.98;;;;;;;12.01;100.00;99444.28;5250398;28;20039;-75
2024/03/10 09:01:31;;;;;;;22.85;12.68;;;;;;;12.05;100.00;99450.91;5248444;28;20020;-75
2024/03/10 09:04:02;;;;;;;28.15;13.48;;;;;;;12.11;100.00;99468.06;5249271;28;20020;-73
2024/03/10 09:06:34;;;;;;;26.27;12.50;;;;;;;12.14;100.00;99470.31;5247388;28;20038;-74
2024/03/10 09:09:05;;;;;;;25.40;12.65;;;;;;;12.16;100.00;99481.69;5249192;28;20021;-74
2024/03/10 09:11:35;;;;;;;25.52;11.80;;;;;;;12.18;100.00;99493.06;5251840;28;20050;-74
2024/03/10 09:14:07;;;;;;;25.45;12.68;;;;;;;12.17;100.00;99497.59;5249486;28;20030;-74
2024/03/10 09:16:39;;;;;;;25.92;11.98;;;;;;;12.18;100.00;99491.19;5247965;28;20030;-74
2024/03/10 09:19:10;;;;;;;26.15;13.07;;;;;;;12.19;100.00;99487.47;5249750;28;20019;-74
2024/03/10 09:21:40;;;;;;;26.15;13.73;;;;;;;12.23;100.00;99484.38;5251044;28;20103;-74
2024/03/10 09:24:14;;;;;;;24.13;12.27;;;;;;;12.24;100.00;99470.69;5250879;28;20019;-74
2024/03/10 09:26:45;;;;;;;27.17;13.05;;;;;;;12.26;100.00;99470.50;5247135;28;20020;-74
2024/03/10 09:29:15;;;;;;;26.05;12.68;;;;;;;12.28;100.00;99473.81;5253294;28;20370;-74
2024/03/10 09:31:46;;;;;;;22.70;12.32;;;;;;;12.32;100.00;99472.34;5248145;28;20525;-74
2024/03/10 09:34:16;;;;;;;25.42;12.32;;;;;;;12.37;100.00;99470.69;5254797;28;20008;-74
2024/03/10 09:36:47;;;;;;;23.63;12.57;;;;;;;12.39;100.00;99470.47;5245936;28;20013;-74
2024/03/10 09:39:18;;;;;;;26.52;13.20;;;;;;;12.43;100.00;99466.31;5251207;28;20023;-74
2024/03/10 09:41:49;;;;;;;26.52;12.18;;;;;;;12.55;100.00;99455.72;5248761;28;20027;-74
2024/03/10 09:44:22;;;;;;;25.70;12.23;;;;;;;12.60;100.00;99462.13;5251094;28;20039;-74
2024/03/10 09:46:55;;;;;;;22.55;12.60;;;;;;;12.67;100.00;99459.41;5253874;28;20032;-74
2024/03/10 09:49:26;;;;;;;25.45;12.07;;;;;;;12.77;100.00;99457.09;5253553;28;20023;-74
2024/03/10 09:51:56;;;;;;;26.00;13.55;;;;;;;12.78;100.00;99463.28;5250015;28;20034;-74
2024/03/10 09:54:27;;;;;;;24.88;12.77;;;;;;;12.85;100.00;99456.00;5238919;28;20039;-74
2024/03/10 09:56:58;;;;;;;25.88;13.10;;;;;;;12.96;100.00;99458.84;5267986;28;20036;-74
2024/03/10 09:59:35;;;;;;;25.27;12.25;;;;;;;13.02;100.00;99476.00;5250046;28;20024;-74
2024/03/10 10:02:29;;;;;;;28.85;13.68;;;;;;;13.04;100.00;99478.47;5248732;28;20070;-74
2024/03/10 10:05:06;;;;;;;28.25;13.55;;;;;;;13.04;100.00;99473.09;5245414;28;20116;-75
2024/03/10 10:07:36;;;;;;;31.58;14.70;;;;;;;13.07;100.00;99467.28;5250893;28;20541;-74
2024/03/10 10:10:07;;;;;;;27.20;13.40;;;;;;;13.14;100.00;99473.44;5244598;28;20012;-74
2024/03/10 10:12:41;;;;;;;25.48;13.20;;;;;;;13.19;100.00;99469.06;5251390;28;20073;-74
2024/03/10 10:15:11;;;;;;;24.70;12.93;;;;;;;13.23;100.00;99464.09;5248970;28;20016;-74
2024/03/10 10:17:45;;;;;;;25.98;13.18;;;;;;;13.24;100.00;99454.97;5247442;28;20039;-74
2024/03/10 10:20:18;;;;;;;23.20;11.77;;;;;;;13.19;100.00;99466.38;5235647;28;20040;-74
2024/03/10 10:22:51;;;;;;;24.95;12.73;;;;;;;13.13;100.00;99461.84;5252881;28;20032;-74
2024/03/10 10:25:22;;;;;;;23.27;12.18;;;;;;;13.10;100.00;99470.38;5248147;28;20575;-74
2024/03/10 10:27:54;;;;;;;26.83;12.05;;;;;;;13.08;100.00;99472.44;5252186;28;20036;-75
2024/03/10 10:30:28;;;;;;;24.88;12.25;;;;;;;13.13;100.00;99467.22;5248237;28;20021;-74
2024/03/10 10:33:07;;;;;;;24.75;12.18;;;;;;;13.12;100.00;99449.44;5269915;28;20596;-74
2024/03/10 10:35:39;;;;;;;23.13;12.93;;;;;;;13.07;100.00;99441.19;5232493;28;20488;-75
2024/03/10 10:38:13;;;;;;;23.42;11.80;;;;;;;13.04;100.00;99441.59;5241238;28;20030;-74
2024/03/10 10:40:47;;;;;;;26.17;12.88;;;;;;;13.05;100.00;99453.19;5248163;28;20440;-74
2024/03/10 10:43:18;;;;;;;25.85;13.35;;;;;;;13.04;100.00;99457.75;5244060;28;20472;-75
2024/03/10 10:45:48;;;;;;;26.50;14.25;;;;;;;13.07;100.00;99451.13;5249550;28;20036;-74
2024/03/10 10:48:20;;;;;;;24.42;12.57;;;;;;;13.17;100.00;99455.00;5253184;28;20434;-75
2024/03/10 10:50:51;;;;;;;25.85;12.93;;;;;;;13.23;100.00;99453.31;5250345;28;20020;-75
2024/03/10 10:53:21;;;;;;;24.48;13.40;;;;;;;13.27;100.00;99459.94;5247135;28;20028;-74
2024/03/10 10:55:53;;;;;;;23.38;12.77;;;;;;;13.26;100.00;99462.84;5249201;28;20028;-75
2024/03/10 10:58:27;;;;;;;23.52;12.77;;;;;;;13.27;100.00;99456.41;5245599;28;20020;-74
2024/03/10 11:01:05;;;;;;;22.45;12.88;;;;;;;13.32;100.00;99465.50;5246925;28;20025;-75
2024/03/10 11:03:36;;;;;;;22.48;12.27;;;;;;;13.33;100.00;99469.00;5247611;28;20024;-74
2024/03/10 11:06:08;;;;;;;23.15;12.88;;;;;;;13.33;100.00;99475.22;5256227;28;20098;-74
2024/03/10 11:08:39;;;;;;;24.58;13.13;;;;;;;13.38;100.00;99469.19;5243997;28;20116;-75
2024/03/10 11:11:14;;;;;;;33.10;13.15;;;;;;;13.46;100.00;99466.25;5247850;28;20049;-75
2024/03/10 11:13:46;;;;;;;27.80;13.75;;;;;;;13.45;100.00;99470.81;5244695;28;20649;-74
2024/03/10 11:16:24;;;;;;;23.90;13.55;;;;;;;13.50;100.00;99483.59;5253988;28;20020;-75
2024/03/10 11:19:13;;;;;;;25.35;13.23;;;;;;;13.53;100.00;99488.56;5238634;28;20021;-76
2024/03/10 11:21:47;;;;;;;24.50;11.80;;;;;;;13.56;100.00;99490.81;5237388;28;20055;-76
2024/03/10 11:24:21;;;;;;;20.33;11.18;;;;;;;13.52;100.00;99491.47;5253993;28;20035;-76
2024/03/10 11:27:10;;;;;;;21.07;10.53;;;;;;;13.53;100.00;99495.81;5243849;28;20029;-76
2024/03/10 11:29:41;;;;;;;21.63;11.35;;;;;;;13.57;100.00;99491.66;5247269;28;20027;-76
2024/03/10 11:32:35;;;;;;;23.02;11.00;;;;;;;13.63;100.00;99478.13;5245844;28;20028;-75
2024/03/10 11:35:07;;;;;;;21.63;11.82;;;;;;;13.70;100.00;99461.88;5245852;28;20024;-76
2024/03/10 11:37:37;;;;;;;24.75;11.77;;;;;;;13.82;100.00;99453.91;5245732;28;20145;-76
2024/03/10 11:40:15;;;;;;;21.02;11.18;;;;;;;13.93;100.00;99455.88;5242129;28;20028;-76
2024/03/10 11:42:47;;;;;;;22.48;11.63;;;;;;;13.96;100.00;99444.66;5245009;28;20417;-76
2024/03/10 11:45:19;;;;;;;22.05;11.77;;;;;;;14.01;100.00;99450.22;5245013;28;20052;-75
2024/03/10 11:47:49;;;;;;;22.50;12.50;;;;;;;14.05;100.00;99448.69;5237007;28;20235;-76
2024/03/10 11:50:20;;;;;;;24.40;12.38;;;;;;;14.10;100.00;99432.69;5242457;28;20538;-75
2024/03/10 11:52:51;;;;;;;20.63;11.82;;;;;;;14.18;100.00;99432.41;5237584;28;20028;-76